sensor_id;sensor_type;location;lat;lon;timestamp;P1;durP1;ratioP1;P2;durP2;ratioP2
72785;SDS011;60902;53.876;10.674;2023-02-05T00:00:02;5.40;;;1.58;;
72785;SDS011;60902;53.876;10.674;2023-02-05T00:00:14;5.70;;;1.77;;
72785;SDS011;60902;53.876;10.674;2023-02-05T00:00:26;5.50;;;1.95;;
72785;SDS011;60902;53.876;10.674;2023-02-05T00:00:37;5.22;;;1.98;;
72785;SDS011;60902;53.876;10.674;2023-02-05T00:00:49;4.57;;;1.90;;
72785;SDS011;60902;53.876;10.674;2023-02-05T00:01:01;4.20;;;1.83;;
72785;SDS011;60902;53.876;10.674;2023-02-05T00:01:12;4.18;;;1.85;;
72785;SDS011;60902;53.876;10.674;2023-02-05T00:01:23;4.35;;;1.70;;
72785;SDS011;60902;53.876;10.674;2023-02-05T00:01:34;4.90;;;1.83;;
72785;SDS011;60902;53.876;10.674;2023-02-05T00:01:45;5.35;;;2.20;;
72785;SDS011;60902;53.876;10.674;2023-02-05T00:01:56;5.07;;;2.20;;
72785;SDS011;60902;53.876;10.674;2023-02-05T00:02:07;5.20;;;2.08;;
72785;SDS011;60902;53.876;10.674;2023-02-05T00:02:18;4.93;;;1.80;;
72785;SDS011;60902;53.876;10.674;2023-02-05T00:02:29;4.93;;;2.00;;
72785;SDS011;60902;53.876;10.674;2023-02-05T00:02:40;4.70;;;1.95;;
72785;SDS011;60902;53.876;10.674;2023-02-05T00:02:52;5.00;;;2.08;;
72785;SDS011;60902;53.876;10.674;2023-02-05T00:03:03;4.90;;;2.05;;
72785;SDS011;60902;53.876;10.674;2023-02-05T00:03:13;4.82;;;1.85;;
72785;SDS011;60902;53.876;10.674;2023-02-05T00:03:24;4.60;;;1.73;;
72785;SDS011;60902;53.876;10.674;2023-02-05T00:03:35;4.50;;;1.70;;
72785;SDS011;60902;53.876;10.674;2023-02-05T00:03:48;4.30;;;1.80;;
72785;SDS011;60902;53.876;10.674;2023-02-05T00:03:59;4.90;;;1.98;;
72785;SDS011;60902;53.876;10.674;2023-02-05T00:04:10;5.00;;;1.90;;
72785;SDS011;60902;53.876;10.674;2023-02-05T00:04:21;4.80;;;1.90;;
72785;SDS011;60902;53.876;10.674;2023-02-05T00:04:32;4.72;;;1.92;;
72785;SDS011;60902;53.876;10.674;2023-02-05T00:04:43;4.60;;;1.90;;
72785;SDS011;60902;53.876;10.674;2023-02-05T00:04:54;4.45;;;1.85;;
72785;SDS011;60902;53.876;10.674;2023-02-05T00:05:05;4.18;;;1.70;;
72785;SDS011;60902;53.876;10.674;2023-02-05T00:05:16;4.60;;;1.88;;
72785;SDS011;60902;53.876;10.674;2023-02-05T00:05:27;5.00;;;1.90;;
72785;SDS011;60902;53.876;10.674;2023-02-05T00:05:38;5.88;;;1.88;;
72785;SDS011;60902;53.876;10.674;2023-02-05T00:05:49;5.30;;;1.70;;
72785;SDS011;60902;53.876;10.674;2023-02-05T00:06:00;5.07;;;1.70;;
72785;SDS011;60902;53.876;10.674;2023-02-05T00:06:11;4.78;;;1.77;;
72785;SDS011;60902;53.876;10.674;2023-02-05T00:06:22;4.90;;;1.70;;
72785;SDS011;60902;53.876;10.674;2023-02-05T00:06:33;4.97;;;1.67;;
72785;SDS011;60902;53.876;10.674;2023-02-05T00:06:45;4.88;;;1.80;;
72785;SDS011;60902;53.876;10.674;2023-02-05T00:06:56;4.78;;;1.90;;
72785;SDS011;60902;53.876;10.674;2023-02-05T00:07:06;4.75;;;1.80;;
72785;SDS011;60902;53.876;10.674;2023-02-05T00:07:18;4.40;;;1.73;;
72785;SDS011;60902;53.876;10.674;2023-02-05T00:07:28;4.23;;;1.73;;
72785;SDS011;60902;53.876;10.674;2023-02-05T00:07:39;4.60;;;1.70;;
72785;SDS011;60902;53.876;10.674;2023-02-05T00:07:50;5.07;;;1.80;;
72785;SDS011;60902;53.876;10.674;2023-02-05T00:08:01;4.97;;;1.70;;
72785;SDS011;60902;53.876;10.674;2023-02-05T00:08:11;4.73;;;1.60;;
72785;SDS011;60902;53.876;10.674;2023-02-05T00:08:23;4.53;;;1.63;;
72785;SDS011;60902;53.876;10.674;2023-02-05T00:08:36;4.53;;;1.65;;
72785;SDS011;60902;53.876;10.674;2023-02-05T00:08:47;4.13;;;1.55;;
72785;SDS011;60902;53.876;10.674;2023-02-05T00:08:58;4.25;;;1.67;;
72785;SDS011;60902;53.876;10.674;2023-02-05T00:09:09;4.27;;;1.70;;
72785;SDS011;60902;53.876;10.674;2023-02-05T00:09:19;4.70;;;1.63;;
72785;SDS011;60902;53.876;10.674;2023-02-05T00:09:30;4.82;;;1.60;;
72785;SDS011;60902;53.876;10.674;2023-02-05T00:09:41;5.05;;;1.90;;
72785;SDS011;60902;53.876;10.674;2023-02-05T00:09:52;5.25;;;2.03;;
72785;SDS011;60902;53.876;10.674;2023-02-05T00:10:04;5.15;;;2.05;;
72785;SDS011;60902;53.876;10.674;2023-02-05T00:10:16;4.60;;;1.80;;
72785;SDS011;60902;53.876;10.674;2023-02-05T00:10:27;3.95;;;1.58;;
72785;SDS011;60902;53.876;10.674;2023-02-05T00:10:38;4.22;;;1.83;;
72785;SDS011;60902;53.876;10.674;2023-02-05T00:10:50;4.13;;;1.90;;
72785;SDS011;60902;53.876;10.674;2023-02-05T00:11:01;4.10;;;1.77;;
72785;SDS011;60902;53.876;10.674;2023-02-05T00:11:18;4.43;;;1.60;;
72785;SDS011;60902;53.876;10.674;2023-02-05T00:11:30;4.88;;;1.77;;
72785;SDS011;60902;53.876;10.674;2023-02-05T00:11:41;5.07;;;1.85;;
72785;SDS011;60902;53.876;10.674;2023-02-05T00:11:51;4.97;;;1.83;;
72785;SDS011;60902;53.876;10.674;2023-02-05T00:12:02;4.87;;;1.87;;
72785;SDS011;60902;53.876;10.674;2023-02-05T00:12:13;4.22;;;1.65;;
72785;SDS011;60902;53.876;10.674;2023-02-05T00:12:24;4.60;;;1.80;;
72785;SDS011;60902;53.876;10.674;2023-02-05T00:12:35;4.85;;;1.70;;
72785;SDS011;60902;53.876;10.674;2023-02-05T00:12:47;5.38;;;1.98;;
72785;SDS011;60902;53.876;10.674;2023-02-05T00:12:58;5.60;;;1.98;;
72785;SDS011;60902;53.876;10.674;2023-02-05T00:13:09;4.97;;;2.03;;
72785;SDS011;60902;53.876;10.674;2023-02-05T00:13:20;4.38;;;1.77;;
72785;SDS011;60902;53.876;10.674;2023-02-05T00:13:31;4.18;;;1.55;;
72785;SDS011;60902;53.876;10.674;2023-02-05T00:13:42;4.60;;;1.63;;
72785;SDS011;60902;53.876;10.674;2023-02-05T00:13:53;4.55;;;1.63;;
72785;SDS011;60902;53.876;10.674;2023-02-05T00:14:04;4.38;;;1.83;;
72785;SDS011;60902;53.876;10.674;2023-02-05T00:14:15;4.22;;;1.90;;
72785;SDS011;60902;53.876;10.674;2023-02-05T00:14:26;4.78;;;1.90;;
72785;SDS011;60902;53.876;10.674;2023-02-05T00:14:37;5.03;;;1.73;;
72785;SDS011;60902;53.876;10.674;2023-02-05T00:14:48;4.72;;;1.50;;
72785;SDS011;60902;53.876;10.674;2023-02-05T00:14:59;4.60;;;1.70;;
72785;SDS011;60902;53.876;10.674;2023-02-05T00:15:10;4.68;;;1.80;;
72785;SDS011;60902;53.876;10.674;2023-02-05T00:15:21;4.93;;;1.90;;
72785;SDS011;60902;53.876;10.674;2023-02-05T00:15:32;4.93;;;2.00;;
72785;SDS011;60902;53.876;10.674;2023-02-05T00:15:43;4.65;;;2.00;;
72785;SDS011;60902;53.876;10.674;2023-02-05T00:15:56;4.68;;;2.00;;
72785;SDS011;60902;53.876;10.674;2023-02-05T00:16:07;4.30;;;1.80;;
72785;SDS011;60902;53.876;10.674;2023-02-05T00:16:19;4.35;;;1.83;;
72785;SDS011;60902;53.876;10.674;2023-02-05T00:16:33;4.70;;;1.85;;
72785;SDS011;60902;53.876;10.674;2023-02-05T00:16:45;4.28;;;1.42;;
72785;SDS011;60902;53.876;10.674;2023-02-05T00:16:56;4.18;;;1.50;;
72785;SDS011;60902;53.876;10.674;2023-02-05T00:17:07;3.90;;;1.50;;
72785;SDS011;60902;53.876;10.674;2023-02-05T00:17:17;3.97;;;1.60;;
72785;SDS011;60902;53.876;10.674;2023-02-05T00:17:28;4.57;;;1.80;;
72785;SDS011;60902;53.876;10.674;2023-02-05T00:17:39;4.87;;;2.03;;
72785;SDS011;60902;53.876;10.674;2023-02-05T00:17:50;5.28;;;2.05;;
72785;SDS011;60902;53.876;10.674;2023-02-05T00:18:01;4.80;;;1.88;;
72785;SDS011;60902;53.876;10.674;2023-02-05T00:18:14;4.70;;;1.92;;
72785;SDS011;60902;53.876;10.674;2023-02-05T00:18:25;4.40;;;1.77;;
72785;SDS011;60902;53.876;10.674;2023-02-05T00:18:35;4.30;;;1.70;;
72785;SDS011;60902;53.876;10.674;2023-02-05T00:18:46;4.00;;;1.43;;
72785;SDS011;60902;53.876;10.674;2023-02-05T00:18:57;3.97;;;1.40;;
72785;SDS011;60902;53.876;10.674;2023-02-05T00:19:08;4.10;;;1.50;;
72785;SDS011;60902;53.876;10.674;2023-02-05T00:19:19;4.43;;;1.80;;
72785;SDS011;60902;53.876;10.674;2023-02-05T00:19:31;4.18;;;1.80;;
72785;SDS011;60902;53.876;10.674;2023-02-05T00:19:42;3.97;;;1.63;;
72785;SDS011;60902;53.876;10.674;2023-02-05T00:19:52;3.95;;;1.42;;
72785;SDS011;60902;53.876;10.674;2023-02-05T00:20:04;4.10;;;1.50;;
72785;SDS011;60902;53.876;10.674;2023-02-05T00:20:15;4.47;;;1.60;;
72785;SDS011;60902;53.876;10.674;2023-02-05T00:20:26;4.07;;;1.48;;
72785;SDS011;60902;53.876;10.674;2023-02-05T00:20:37;4.05;;;1.40;;
72785;SDS011;60902;53.876;10.674;2023-02-05T00:20:48;4.55;;;1.52;;
72785;SDS011;60902;53.876;10.674;2023-02-05T00:20:59;5.00;;;1.67;;
72785;SDS011;60902;53.876;10.674;2023-02-05T00:21:11;5.03;;;1.63;;
72785;SDS011;60902;53.876;10.674;2023-02-05T00:21:23;4.80;;;1.98;;
72785;SDS011;60902;53.876;10.674;2023-02-05T00:21:34;4.85;;;2.00;;
72785;SDS011;60902;53.876;10.674;2023-02-05T00:21:45;4.60;;;2.00;;
72785;SDS011;60902;53.876;10.674;2023-02-05T00:21:55;4.70;;;1.85;;
72785;SDS011;60902;53.876;10.674;2023-02-05T00:22:06;4.80;;;1.85;;
72785;SDS011;60902;53.876;10.674;2023-02-05T00:22:18;4.70;;;2.00;;
72785;SDS011;60902;53.876;10.674;2023-02-05T00:22:29;4.47;;;1.97;;
72785;SDS011;60902;53.876;10.674;2023-02-05T00:22:40;5.60;;;1.95;;
72785;SDS011;60902;53.876;10.674;2023-02-05T00:22:51;5.57;;;1.90;;
72785;SDS011;60902;53.876;10.674;2023-02-05T00:23:01;5.50;;;1.88;;
72785;SDS011;60902;53.876;10.674;2023-02-05T00:23:12;5.07;;;2.00;;
72785;SDS011;60902;53.876;10.674;2023-02-05T00:23:23;5.30;;;1.93;;
72785;SDS011;60902;53.876;10.674;2023-02-05T00:23:34;4.97;;;1.77;;
72785;SDS011;60902;53.876;10.674;2023-02-05T00:23:46;4.68;;;1.65;;
72785;SDS011;60902;53.876;10.674;2023-02-05T00:23:58;4.93;;;1.60;;
72785;SDS011;60902;53.876;10.674;2023-02-05T00:24:09;4.95;;;1.65;;
72785;SDS011;60902;53.876;10.674;2023-02-05T00:24:20;5.20;;;1.80;;
72785;SDS011;60902;53.876;10.674;2023-02-05T00:24:30;4.95;;;1.83;;
72785;SDS011;60902;53.876;10.674;2023-02-05T00:24:41;4.43;;;1.70;;
72785;SDS011;60902;53.876;10.674;2023-02-05T00:24:52;4.38;;;1.60;;
72785;SDS011;60902;53.876;10.674;2023-02-05T00:25:03;4.50;;;1.60;;
72785;SDS011;60902;53.876;10.674;2023-02-05T00:25:16;4.13;;;1.58;;
72785;SDS011;60902;53.876;10.674;2023-02-05T00:25:26;4.00;;;1.60;;
72785;SDS011;60902;53.876;10.674;2023-02-05T00:25:37;4.18;;;1.85;;
72785;SDS011;60902;53.876;10.674;2023-02-05T00:25:48;4.40;;;1.80;;
72785;SDS011;60902;53.876;10.674;2023-02-05T00:25:59;4.65;;;1.85;;
72785;SDS011;60902;53.876;10.674;2023-02-05T00:26:10;4.53;;;1.75;;
72785;SDS011;60902;53.876;10.674;2023-02-05T00:26:23;4.35;;;1.80;;
72785;SDS011;60902;53.876;10.674;2023-02-05T00:26:33;4.33;;;1.73;;
72785;SDS011;60902;53.876;10.674;2023-02-05T00:26:44;4.50;;;1.60;;
72785;SDS011;60902;53.876;10.674;2023-02-05T00:26:56;4.60;;;1.77;;
72785;SDS011;60902;53.876;10.674;2023-02-05T00:27:07;4.72;;;1.83;;
72785;SDS011;60902;53.876;10.674;2023-02-05T00:27:19;4.70;;;1.90;;
72785;SDS011;60902;53.876;10.674;2023-02-05T00:27:30;5.03;;;2.00;;
72785;SDS011;60902;53.876;10.674;2023-02-05T00:27:41;4.60;;;1.92;;
72785;SDS011;60902;53.876;10.674;2023-02-05T00:27:52;4.78;;;1.80;;
72785;SDS011;60902;53.876;10.674;2023-02-05T00:28:03;4.55;;;1.92;;
72785;SDS011;60902;53.876;10.674;2023-02-05T00:28:15;4.43;;;1.77;;
72785;SDS011;60902;53.876;10.674;2023-02-05T00:28:26;4.47;;;1.70;;
72785;SDS011;60902;53.876;10.674;2023-02-05T00:28:36;4.80;;;1.60;;
72785;SDS011;60902;53.876;10.674;2023-02-05T00:28:47;5.03;;;1.77;;
72785;SDS011;60902;53.876;10.674;2023-02-05T00:28:58;4.78;;;1.60;;
72785;SDS011;60902;53.876;10.674;2023-02-05T00:29:09;4.50;;;1.63;;
72785;SDS011;60902;53.876;10.674;2023-02-05T00:29:20;4.43;;;1.77;;
72785;SDS011;60902;53.876;10.674;2023-02-05T00:29:31;4.35;;;1.80;;
72785;SDS011;60902;53.876;10.674;2023-02-05T00:29:42;5.10;;;1.90;;
72785;SDS011;60902;53.876;10.674;2023-02-05T00:29:53;4.90;;;1.70;;
72785;SDS011;60902;53.876;10.674;2023-02-05T00:30:04;4.73;;;1.80;;
72785;SDS011;60902;53.876;10.674;2023-02-05T00:30:16;4.20;;;1.60;;
72785;SDS011;60902;53.876;10.674;2023-02-05T00:30:28;4.38;;;1.50;;
72785;SDS011;60902;53.876;10.674;2023-02-05T00:30:39;4.65;;;1.52;;
72785;SDS011;60902;53.876;10.674;2023-02-05T00:30:50;4.87;;;1.70;;
72785;SDS011;60902;53.876;10.674;2023-02-05T00:31:06;5.22;;;1.85;;
72785;SDS011;60902;53.876;10.674;2023-02-05T00:31:20;5.13;;;1.60;;
72785;SDS011;60902;53.876;10.674;2023-02-05T00:31:32;4.63;;;1.52;;
72785;SDS011;60902;53.876;10.674;2023-02-05T00:31:43;4.20;;;1.42;;
72785;SDS011;60902;53.876;10.674;2023-02-05T00:31:54;3.92;;;1.52;;
72785;SDS011;60902;53.876;10.674;2023-02-05T00:32:04;4.20;;;1.60;;
72785;SDS011;60902;53.876;10.674;2023-02-05T00:32:15;4.30;;;1.60;;
72785;SDS011;60902;53.876;10.674;2023-02-05T00:32:26;4.47;;;1.80;;
72785;SDS011;60902;53.876;10.674;2023-02-05T00:32:37;4.60;;;1.80;;
72785;SDS011;60902;53.876;10.674;2023-02-05T00:32:48;4.70;;;1.80;;
72785;SDS011;60902;53.876;10.674;2023-02-05T00:32:59;4.53;;;1.55;;
72785;SDS011;60902;53.876;10.674;2023-02-05T00:33:10;4.05;;;1.50;;
72785;SDS011;60902;53.876;10.674;2023-02-05T00:33:21;4.05;;;1.42;;
72785;SDS011;60902;53.876;10.674;2023-02-05T00:33:32;4.30;;;1.58;;
72785;SDS011;60902;53.876;10.674;2023-02-05T00:33:44;4.93;;;1.70;;
72785;SDS011;60902;53.876;10.674;2023-02-05T00:33:55;5.10;;;1.90;;
72785;SDS011;60902;53.876;10.674;2023-02-05T00:34:06;4.88;;;1.70;;
72785;SDS011;60902;53.876;10.674;2023-02-05T00:34:17;4.33;;;1.57;;
72785;SDS011;60902;53.876;10.674;2023-02-05T00:34:29;4.47;;;1.48;;
72785;SDS011;60902;53.876;10.674;2023-02-05T00:34:39;4.35;;;1.63;;
72785;SDS011;60902;53.876;10.674;2023-02-05T00:34:51;4.40;;;1.80;;
72785;SDS011;60902;53.876;10.674;2023-02-05T00:35:02;4.35;;;1.98;;
72785;SDS011;60902;53.876;10.674;2023-02-05T00:35:12;4.78;;;1.90;;
72785;SDS011;60902;53.876;10.674;2023-02-05T00:35:23;4.63;;;1.75;;
72785;SDS011;60902;53.876;10.674;2023-02-05T00:35:34;4.75;;;1.60;;
72785;SDS011;60902;53.876;10.674;2023-02-05T00:35:45;4.63;;;1.67;;
72785;SDS011;60902;53.876;10.674;2023-02-05T00:35:57;4.75;;;1.70;;
72785;SDS011;60902;53.876;10.674;2023-02-05T00:36:08;5.32;;;1.98;;
72785;SDS011;60902;53.876;10.674;2023-02-05T00:36:19;4.82;;;1.73;;
72785;SDS011;60902;53.876;10.674;2023-02-05T00:36:30;4.93;;;1.70;;
72785;SDS011;60902;53.876;10.674;2023-02-05T00:36:41;4.35;;;1.63;;
72785;SDS011;60902;53.876;10.674;2023-02-05T00:36:52;4.93;;;1.80;;
72785;SDS011;60902;53.876;10.674;2023-02-05T00:37:03;5.00;;;1.88;;
72785;SDS011;60902;53.876;10.674;2023-02-05T00:37:15;4.70;;;1.70;;
72785;SDS011;60902;53.876;10.674;2023-02-05T00:37:25;4.38;;;1.58;;
72785;SDS011;60902;53.876;10.674;2023-02-05T00:37:36;4.33;;;1.50;;
72785;SDS011;60902;53.876;10.674;2023-02-05T00:37:47;4.45;;;1.55;;
72785;SDS011;60902;53.876;10.674;2023-02-05T00:37:58;5.10;;;1.88;;
72785;SDS011;60902;53.876;10.674;2023-02-05T00:38:09;5.32;;;1.98;;
72785;SDS011;60902;53.876;10.674;2023-02-05T00:38:19;4.95;;;2.10;;
72785;SDS011;60902;53.876;10.674;2023-02-05T00:38:30;4.40;;;2.00;;
72785;SDS011;60902;53.876;10.674;2023-02-05T00:38:42;4.43;;;1.80;;
72785;SDS011;60902;53.876;10.674;2023-02-05T00:38:54;4.60;;;1.60;;
72785;SDS011;60902;53.876;10.674;2023-02-05T00:39:05;4.72;;;1.70;;
72785;SDS011;60902;53.876;10.674;2023-02-05T00:39:18;4.80;;;1.65;;
72785;SDS011;60902;53.876;10.674;2023-02-05T00:39:28;4.90;;;1.80;;
72785;SDS011;60902;53.876;10.674;2023-02-05T00:39:39;4.50;;;1.73;;
72785;SDS011;60902;53.876;10.674;2023-02-05T00:39:50;5.35;;;1.77;;
72785;SDS011;60902;53.876;10.674;2023-02-05T00:40:01;5.22;;;1.63;;
72785;SDS011;60902;53.876;10.674;2023-02-05T00:40:13;5.32;;;1.60;;
72785;SDS011;60902;53.876;10.674;2023-02-05T00:40:24;5.10;;;1.80;;
72785;SDS011;60902;53.876;10.674;2023-02-05T00:40:34;5.20;;;1.88;;
72785;SDS011;60902;53.876;10.674;2023-02-05T00:40:45;4.70;;;1.90;;
72785;SDS011;60902;53.876;10.674;2023-02-05T00:40:56;4.32;;;1.63;;
72785;SDS011;60902;53.876;10.674;2023-02-05T00:41:07;4.57;;;1.53;;
72785;SDS011;60902;53.876;10.674;2023-02-05T00:41:18;4.57;;;1.60;;
72785;SDS011;60902;53.876;10.674;2023-02-05T00:41:30;4.30;;;1.58;;
72785;SDS011;60902;53.876;10.674;2023-02-05T00:41:41;4.20;;;1.60;;
72785;SDS011;60902;53.876;10.674;2023-02-05T00:41:52;4.10;;;1.60;;
72785;SDS011;60902;53.876;10.674;2023-02-05T00:42:03;4.47;;;1.73;;
72785;SDS011;60902;53.876;10.674;2023-02-05T00:42:13;4.60;;;1.80;;
72785;SDS011;60902;53.876;10.674;2023-02-05T00:42:24;5.22;;;1.70;;
72785;SDS011;60902;53.876;10.674;2023-02-05T00:42:35;5.07;;;1.73;;
72785;SDS011;60902;53.876;10.674;2023-02-05T00:42:46;4.47;;;1.60;;
72785;SDS011;60902;53.876;10.674;2023-02-05T00:42:58;4.28;;;1.67;;
72785;SDS011;60902;53.876;10.674;2023-02-05T00:43:09;4.32;;;1.83;;
72785;SDS011;60902;53.876;10.674;2023-02-05T00:43:19;4.60;;;2.10;;
72785;SDS011;60902;53.876;10.674;2023-02-05T00:43:30;4.90;;;2.13;;
72785;SDS011;60902;53.876;10.674;2023-02-05T00:43:41;5.03;;;1.90;;
72785;SDS011;60902;53.876;10.674;2023-02-05T00:43:52;5.40;;;1.90;;
72785;SDS011;60902;53.876;10.674;2023-02-05T00:44:03;4.75;;;1.85;;
72785;SDS011;60902;53.876;10.674;2023-02-05T00:44:14;4.82;;;2.10;;
72785;SDS011;60902;53.876;10.674;2023-02-05T00:44:26;4.68;;;2.00;;
72785;SDS011;60902;53.876;10.674;2023-02-05T00:44:37;4.63;;;1.80;;
72785;SDS011;60902;53.876;10.674;2023-02-05T00:44:48;4.45;;;1.75;;
72785;SDS011;60902;53.876;10.674;2023-02-05T00:44:58;4.70;;;1.67;;
72785;SDS011;60902;53.876;10.674;2023-02-05T00:45:09;4.60;;;1.55;;
72785;SDS011;60902;53.876;10.674;2023-02-05T00:45:20;4.25;;;1.58;;
72785;SDS011;60902;53.876;10.674;2023-02-05T00:45:31;4.00;;;1.60;;
72785;SDS011;60902;53.876;10.674;2023-02-05T00:45:44;4.30;;;1.70;;
72785;SDS011;60902;53.876;10.674;2023-02-05T00:45:56;4.10;;;1.73;;
72785;SDS011;60902;53.876;10.674;2023-02-05T00:46:08;4.28;;;1.85;;
72785;SDS011;60902;53.876;10.674;2023-02-05T00:46:19;4.57;;;1.77;;
72785;SDS011;60902;53.876;10.674;2023-02-05T00:46:30;4.88;;;1.65;;
72785;SDS011;60902;53.876;10.674;2023-02-05T00:46:41;4.50;;;1.40;;
72785;SDS011;60902;53.876;10.674;2023-02-05T00:46:52;4.45;;;1.60;;
72785;SDS011;60902;53.876;10.674;2023-02-05T00:47:03;4.23;;;1.80;;
72785;SDS011;60902;53.876;10.674;2023-02-05T00:47:14;4.35;;;1.90;;
72785;SDS011;60902;53.876;10.674;2023-02-05T00:47:25;4.15;;;1.77;;
72785;SDS011;60902;53.876;10.674;2023-02-05T00:47:36;4.55;;;1.80;;
72785;SDS011;60902;53.876;10.674;2023-02-05T00:47:47;4.67;;;1.70;;
72785;SDS011;60902;53.876;10.674;2023-02-05T00:47:58;4.70;;;1.70;;
72785;SDS011;60902;53.876;10.674;2023-02-05T00:48:08;4.57;;;1.52;;
72785;SDS011;60902;53.876;10.674;2023-02-05T00:48:19;4.85;;;1.70;;
72785;SDS011;60902;53.876;10.674;2023-02-05T00:48:30;4.90;;;1.85;;
72785;SDS011;60902;53.876;10.674;2023-02-05T00:48:42;5.05;;;1.92;;
72785;SDS011;60902;53.876;10.674;2023-02-05T00:48:53;4.63;;;1.75;;
72785;SDS011;60902;53.876;10.674;2023-02-05T00:49:04;4.78;;;1.60;;
72785;SDS011;60902;53.876;10.674;2023-02-05T00:49:15;4.63;;;1.67;;
72785;SDS011;60902;53.876;10.674;2023-02-05T00:49:26;4.53;;;1.60;;
72785;SDS011;60902;53.876;10.674;2023-02-05T00:49:37;3.92;;;1.50;;
72785;SDS011;60902;53.876;10.674;2023-02-05T00:49:48;4.18;;;1.33;;
72785;SDS011;60902;53.876;10.674;2023-02-05T00:49:59;4.32;;;1.40;;
72785;SDS011;60902;53.876;10.674;2023-02-05T00:50:11;4.68;;;1.60;;
72785;SDS011;60902;53.876;10.674;2023-02-05T00:50:21;4.90;;;1.80;;
72785;SDS011;60902;53.876;10.674;2023-02-05T00:50:33;5.22;;;1.75;;
72785;SDS011;60902;53.876;10.674;2023-02-05T00:50:46;5.38;;;1.70;;
72785;SDS011;60902;53.876;10.674;2023-02-05T00:50:57;5.10;;;1.70;;
72785;SDS011;60902;53.876;10.674;2023-02-05T00:51:08;4.43;;;1.70;;
72785;SDS011;60902;53.876;10.674;2023-02-05T00:51:19;4.55;;;1.90;;
72785;SDS011;60902;53.876;10.674;2023-02-05T00:51:30;4.90;;;2.03;;
72785;SDS011;60902;53.876;10.674;2023-02-05T00:51:41;5.10;;;2.10;;
72785;SDS011;60902;53.876;10.674;2023-02-05T00:51:52;5.28;;;1.88;;
72785;SDS011;60902;53.876;10.674;2023-02-05T00:52:04;5.45;;;1.70;;
72785;SDS011;60902;53.876;10.674;2023-02-05T00:52:15;5.20;;;1.67;;
72785;SDS011;60902;53.876;10.674;2023-02-05T00:52:26;4.30;;;1.60;;
72785;SDS011;60902;53.876;10.674;2023-02-05T00:52:37;4.13;;;1.60;;
72785;SDS011;60902;53.876;10.674;2023-02-05T00:52:47;4.25;;;1.60;;
72785;SDS011;60902;53.876;10.674;2023-02-05T00:52:58;4.35;;;1.65;;
72785;SDS011;60902;53.876;10.674;2023-02-05T00:53:09;4.20;;;1.70;;
72785;SDS011;60902;53.876;10.674;2023-02-05T00:53:21;4.70;;;1.80;;
72785;SDS011;60902;53.876;10.674;2023-02-05T00:53:33;4.68;;;1.70;;
72785;SDS011;60902;53.876;10.674;2023-02-05T00:53:44;4.90;;;1.80;;
72785;SDS011;60902;53.876;10.674;2023-02-05T00:53:54;4.65;;;1.60;;
72785;SDS011;60902;53.876;10.674;2023-02-05T00:54:05;4.75;;;1.85;;
72785;SDS011;60902;53.876;10.674;2023-02-05T00:54:16;4.60;;;1.80;;
72785;SDS011;60902;53.876;10.674;2023-02-05T00:54:27;4.85;;;2.00;;
72785;SDS011;60902;53.876;10.674;2023-02-05T00:54:38;4.78;;;1.52;;
72785;SDS011;60902;53.876;10.674;2023-02-05T00:54:49;4.22;;;1.60;;
72785;SDS011;60902;53.876;10.674;2023-02-05T00:55:02;4.25;;;1.75;;
72785;SDS011;60902;53.876;10.674;2023-02-05T00:55:13;4.63;;;1.92;;
72785;SDS011;60902;53.876;10.674;2023-02-05T00:55:24;4.57;;;1.80;;
72785;SDS011;60902;53.876;10.674;2023-02-05T00:55:35;4.28;;;1.73;;
72785;SDS011;60902;53.876;10.674;2023-02-05T00:55:46;4.30;;;1.67;;
72785;SDS011;60902;53.876;10.674;2023-02-05T00:55:57;4.32;;;1.85;;
72785;SDS011;60902;53.876;10.674;2023-02-05T00:56:08;4.70;;;1.80;;
72785;SDS011;60902;53.876;10.674;2023-02-05T00:56:20;4.90;;;1.55;;
72785;SDS011;60902;53.876;10.674;2023-02-05T00:56:31;4.95;;;1.60;;
72785;SDS011;60902;53.876;10.674;2023-02-05T00:56:41;4.77;;;1.60;;
72785;SDS011;60902;53.876;10.674;2023-02-05T00:56:52;4.70;;;1.65;;
72785;SDS011;60902;53.876;10.674;2023-02-05T00:57:03;4.95;;;1.67;;
72785;SDS011;60902;53.876;10.674;2023-02-05T00:57:14;4.68;;;1.70;;
72785;SDS011;60902;53.876;10.674;2023-02-05T00:57:25;5.10;;;1.90;;
72785;SDS011;60902;53.876;10.674;2023-02-05T00:57:36;5.10;;;1.80;;
72785;SDS011;60902;53.876;10.674;2023-02-05T00:57:48;5.25;;;1.80;;
72785;SDS011;60902;53.876;10.674;2023-02-05T00:57:59;4.90;;;1.60;;
72785;SDS011;60902;53.876;10.674;2023-02-05T00:58:10;4.60;;;1.60;;
72785;SDS011;60902;53.876;10.674;2023-02-05T00:58:21;5.15;;;1.60;;
72785;SDS011;60902;53.876;10.674;2023-02-05T00:58:32;5.22;;;1.70;;
72785;SDS011;60902;53.876;10.674;2023-02-05T00:58:43;5.07;;;1.75;;
72785;SDS011;60902;53.876;10.674;2023-02-05T00:58:56;4.28;;;1.55;;
72785;SDS011;60902;53.876;10.674;2023-02-05T00:59:09;4.50;;;1.63;;
72785;SDS011;60902;53.876;10.674;2023-02-05T00:59:20;4.88;;;1.60;;
72785;SDS011;60902;53.876;10.674;2023-02-05T00:59:32;4.90;;;1.67;;
72785;SDS011;60902;53.876;10.674;2023-02-05T00:59:43;4.80;;;1.63;;
72785;SDS011;60902;53.876;10.674;2023-02-05T00:59:54;4.50;;;1.70;;
72785;SDS011;60902;53.876;10.674;2023-02-05T01:00:05;4.57;;;1.80;;
72785;SDS011;60902;53.876;10.674;2023-02-05T01:00:18;4.63;;;1.65;;
72785;SDS011;60902;53.876;10.674;2023-02-05T01:00:29;4.72;;;1.67;;
72785;SDS011;60902;53.876;10.674;2023-02-05T01:00:39;4.60;;;1.60;;
72785;SDS011;60902;53.876;10.674;2023-02-05T01:00:50;4.63;;;2.10;;
72785;SDS011;60902;53.876;10.674;2023-02-05T01:01:02;4.95;;;2.08;;
72785;SDS011;60902;53.876;10.674;2023-02-05T01:01:15;5.05;;;1.77;;
72785;SDS011;60902;53.876;10.674;2023-02-05T01:01:26;4.20;;;1.60;;
72785;SDS011;60902;53.876;10.674;2023-02-05T01:01:37;4.03;;;1.70;;
72785;SDS011;60902;53.876;10.674;2023-02-05T01:01:48;3.83;;;1.70;;
72785;SDS011;60902;53.876;10.674;2023-02-05T01:01:59;4.15;;;1.70;;
72785;SDS011;60902;53.876;10.674;2023-02-05T01:02:11;4.07;;;1.55;;
72785;SDS011;60902;53.876;10.674;2023-02-05T01:02:21;4.05;;;1.40;;
72785;SDS011;60902;53.876;10.674;2023-02-05T01:02:34;4.13;;;1.40;;
72785;SDS011;60902;53.876;10.674;2023-02-05T01:02:44;4.10;;;1.40;;
72785;SDS011;60902;53.876;10.674;2023-02-05T01:02:55;5.50;;;1.73;;
72785;SDS011;60902;53.876;10.674;2023-02-05T01:03:06;5.93;;;1.90;;
72785;SDS011;60902;53.876;10.674;2023-02-05T01:03:17;5.70;;;1.98;;
72785;SDS011;60902;53.876;10.674;2023-02-05T01:03:29;4.82;;;1.80;;
72785;SDS011;60902;53.876;10.674;2023-02-05T01:03:41;4.70;;;1.65;;
72785;SDS011;60902;53.876;10.674;2023-02-05T01:03:52;4.85;;;1.75;;
72785;SDS011;60902;53.876;10.674;2023-02-05T01:04:03;4.35;;;1.70;;
72785;SDS011;60902;53.876;10.674;2023-02-05T01:04:14;4.50;;;1.90;;
72785;SDS011;60902;53.876;10.674;2023-02-05T01:04:25;4.43;;;1.70;;
72785;SDS011;60902;53.876;10.674;2023-02-05T01:04:35;4.53;;;1.77;;
72785;SDS011;60902;53.876;10.674;2023-02-05T01:04:47;4.18;;;1.60;;
72785;SDS011;60902;53.876;10.674;2023-02-05T01:04:58;4.00;;;1.52;;
72785;SDS011;60902;53.876;10.674;2023-02-05T01:05:09;4.20;;;1.63;;
72785;SDS011;60902;53.876;10.674;2023-02-05T01:05:20;4.55;;;1.60;;
72785;SDS011;60902;53.876;10.674;2023-02-05T01:05:32;4.75;;;1.60;;
72785;SDS011;60902;53.876;10.674;2023-02-05T01:05:44;4.63;;;1.60;;
72785;SDS011;60902;53.876;10.674;2023-02-05T01:05:55;4.40;;;1.58;;
72785;SDS011;60902;53.876;10.674;2023-02-05T01:06:06;4.75;;;1.70;;
72785;SDS011;60902;53.876;10.674;2023-02-05T01:06:18;4.43;;;1.70;;